sensor_id;sensor_type;location;lat;lon;timestamp;P1;durP1;ratioP1;P2;durP2;ratioP2
15624;SDS011;7912;51.376;6.126;2023-03-20T00:02:20;7.17;;;6.07;;
15624;SDS011;7912;51.376;6.126;2023-03-20T00:04:49;7.80;;;6.37;;
15624;SDS011;7912;51.376;6.126;2023-03-20T00:07:17;7.90;;;6.20;;
15624;SDS011;7912;51.376;6.126;2023-03-20T00:09:44;6.83;;;6.13;;
15624;SDS011;7912;51.376;6.126;2023-03-20T00:12:13;7.30;;;6.43;;
15624;SDS011;7912;51.376;6.126;2023-03-20T00:14:46;7.00;;;6.03;;
15624;SDS011;7912;51.376;6.126;2023-03-20T00:17:14;6.47;;;5.40;;
15624;SDS011;7912;51.376;6.126;2023-03-20T00:19:46;7.77;;;6.13;;
15624;SDS011;7912;51.376;6.126;2023-03-20T00:22:16;6.20;;;5.47;;
15624;SDS011;7912;51.376;6.126;2023-03-20T00:24:44;6.80;;;5.43;;
15624;SDS011;7912;51.376;6.126;2023-03-20T00:27:12;6.47;;;5.47;;
15624;SDS011;7912;51.376;6.126;2023-03-20T00:29:42;6.17;;;5.57;;
15624;SDS011;7912;51.376;6.126;2023-03-20T00:32:10;6.00;;;5.40;;
15624;SDS011;7912;51.376;6.126;2023-03-20T00:34:39;6.10;;;5.40;;
15624;SDS011;7912;51.376;6.126;2023-03-20T00:37:07;5.63;;;5.03;;
15624;SDS011;7912;51.376;6.126;2023-03-20T00:39:39;6.43;;;5.70;;
15624;SDS011;7912;51.376;6.126;2023-03-20T00:42:18;6.07;;;5.47;;
15624;SDS011;7912;51.376;6.126;2023-03-20T00:44:51;7.70;;;6.20;;
15624;SDS011;7912;51.376;6.126;2023-03-20T00:47:21;7.10;;;6.13;;
15624;SDS011;7912;51.376;6.126;2023-03-20T00:49:51;7.93;;;7.00;;
15624;SDS011;7912;51.376;6.126;2023-03-20T00:52:23;7.37;;;6.00;;
15624;SDS011;7912;51.376;6.126;2023-03-20T00:54:51;7.17;;;6.43;;
15624;SDS011;7912;51.376;6.126;2023-03-20T01:00:40;7.27;;;6.20;;
15624;SDS011;7912;51.376;6.126;2023-03-20T01:05:38;8.87;;;6.83;;
15624;SDS011;7912;51.376;6.126;2023-03-20T01:08:11;8.97;;;6.77;;
15624;SDS011;7912;51.376;6.126;2023-03-20T01:10:42;8.53;;;6.70;;
15624;SDS011;7912;51.376;6.126;2023-03-20T01:15:56;7.03;;;6.00;;
15624;SDS011;7912;51.376;6.126;2023-03-20T01:18:25;8.70;;;7.10;;
15624;SDS011;7912;51.376;6.126;2023-03-20T01:20:53;7.57;;;6.03;;
15624;SDS011;7912;51.376;6.126;2023-03-20T01:23:21;8.37;;;6.60;;
15624;SDS011;7912;51.376;6.126;2023-03-20T01:25:49;7.33;;;6.50;;
15624;SDS011;7912;51.376;6.126;2023-03-20T01:28:18;8.07;;;6.50;;
15624;SDS011;7912;51.376;6.126;2023-03-20T01:30:49;7.00;;;5.60;;
15624;SDS011;7912;51.376;6.126;2023-03-20T01:33:17;7.20;;;6.40;;
15624;SDS011;7912;51.376;6.126;2023-03-20T01:35:48;6.60;;;5.90;;
15624;SDS011;7912;51.376;6.126;2023-03-20T01:38:21;8.60;;;6.47;;
15624;SDS011;7912;51.376;6.126;2023-03-20T01:43:24;7.17;;;6.17;;
15624;SDS011;7912;51.376;6.126;2023-03-20T01:51:21;7.87;;;6.50;;
15624;SDS011;7912;51.376;6.126;2023-03-20T01:53:54;8.87;;;7.00;;
15624;SDS011;7912;51.376;6.126;2023-03-20T01:56:40;7.87;;;7.07;;
15624;SDS011;7912;51.376;6.126;2023-03-20T01:59:19;9.73;;;7.20;;
15624;SDS011;7912;51.376;6.126;2023-03-20T02:02:13;8.57;;;7.00;;
15624;SDS011;7912;51.376;6.126;2023-03-20T02:04:51;9.10;;;6.97;;
15624;SDS011;7912;51.376;6.126;2023-03-20T02:07:30;10.30;;;7.70;;
15624;SDS011;7912;51.376;6.126;2023-03-20T02:10:03;8.90;;;7.70;;
15624;SDS011;7912;51.376;6.126;2023-03-20T02:12:39;8.57;;;7.13;;
15624;SDS011;7912;51.376;6.126;2023-03-20T02:15:08;8.93;;;7.23;;
15624;SDS011;7912;51.376;6.126;2023-03-20T02:17:41;10.13;;;7.70;;
15624;SDS011;7912;51.376;6.126;2023-03-20T02:20:13;9.57;;;7.33;;
15624;SDS011;7912;51.376;6.126;2023-03-20T02:25:36;9.53;;;7.77;;
15624;SDS011;7912;51.376;6.126;2023-03-20T02:39:16;11.83;;;8.30;;
15624;SDS011;7912;51.376;6.126;2023-03-20T02:44:49;10.90;;;8.53;;
15624;SDS011;7912;51.376;6.126;2023-03-20T02:47:50;9.13;;;7.50;;
15624;SDS011;7912;51.376;6.126;2023-03-20T02:53:39;9.33;;;7.80;;
15624;SDS011;7912;51.376;6.126;2023-03-20T03:00:31;11.07;;;8.63;;
15624;SDS011;7912;51.376;6.126;2023-03-20T03:08:44;13.37;;;9.53;;
15624;SDS011;7912;51.376;6.126;2023-03-20T03:11:20;11.23;;;8.77;;
15624;SDS011;7912;51.376;6.126;2023-03-20T03:13:49;13.33;;;10.10;;
15624;SDS011;7912;51.376;6.126;2023-03-20T03:16:23;12.93;;;10.40;;
15624;SDS011;7912;51.376;6.126;2023-03-20T03:19:06;14.63;;;11.57;;
15624;SDS011;7912;51.376;6.126;2023-03-20T03:21:44;16.83;;;11.70;;
15624;SDS011;7912;51.376;6.126;2023-03-20T03:27:12;18.87;;;12.67;;
15624;SDS011;7912;51.376;6.126;2023-03-20T03:29:59;16.90;;;12.23;;
15624;SDS011;7912;51.376;6.126;2023-03-20T03:32:44;16.80;;;12.17;;
15624;SDS011;7912;51.376;6.126;2023-03-20T03:35:18;17.77;;;12.47;;
15624;SDS011;7912;51.376;6.126;2023-03-20T03:40:40;18.20;;;12.07;;
15624;SDS011;7912;51.376;6.126;2023-03-20T03:43:34;17.77;;;12.83;;
15624;SDS011;7912;51.376;6.126;2023-03-20T03:49:33;15.97;;;11.83;;
15624;SDS011;7912;51.376;6.126;2023-03-20T03:52:07;17.27;;;12.00;;
15624;SDS011;7912;51.376;6.126;2023-03-20T03:54:46;15.47;;;11.90;;
15624;SDS011;7912;51.376;6.126;2023-03-20T03:57:33;16.33;;;11.40;;
15624;SDS011;7912;51.376;6.126;2023-03-20T04:00:12;16.70;;;11.87;;
15624;SDS011;7912;51.376;6.126;2023-03-20T04:02:46;15.93;;;10.83;;
15624;SDS011;7912;51.376;6.126;2023-03-20T04:05:20;15.63;;;11.00;;
15624;SDS011;7912;51.376;6.126;2023-03-20T04:07:54;13.37;;;9.87;;
15624;SDS011;7912;51.376;6.126;2023-03-20T04:10:25;13.80;;;10.27;;
15624;SDS011;7912;51.376;6.126;2023-03-20T04:12:53;13.13;;;9.57;;
15624;SDS011;7912;51.376;6.126;2023-03-20T04:15:20;15.40;;;10.47;;
15624;SDS011;7912;51.376;6.126;2023-03-20T04:17:48;14.43;;;10.30;;
15624;SDS011;7912;51.376;6.126;2023-03-20T04:20:15;15.47;;;9.27;;
15624;SDS011;7912;51.376;6.126;2023-03-20T04:22:47;13.33;;;9.20;;
15624;SDS011;7912;51.376;6.126;2023-03-20T04:25:18;13.73;;;9.63;;
15624;SDS011;7912;51.376;6.126;2023-03-20T04:27:49;13.70;;;9.63;;
15624;SDS011;7912;51.376;6.126;2023-03-20T04:30:17;14.40;;;9.60;;
15624;SDS011;7912;51.376;6.126;2023-03-20T04:32:45;13.90;;;9.70;;
15624;SDS011;7912;51.376;6.126;2023-03-20T04:35:13;11.53;;;8.63;;
15624;SDS011;7912;51.376;6.126;2023-03-20T04:37:41;12.53;;;8.53;;
15624;SDS011;7912;51.376;6.126;2023-03-20T04:40:12;12.20;;;8.70;;
15624;SDS011;7912;51.376;6.126;2023-03-20T04:42:40;13.47;;;8.77;;
15624;SDS011;7912;51.376;6.126;2023-03-20T04:45:10;11.57;;;8.53;;
15624;SDS011;7912;51.376;6.126;2023-03-20T04:47:38;9.80;;;7.77;;
15624;SDS011;7912;51.376;6.126;2023-03-20T04:50:06;11.43;;;8.20;;
15624;SDS011;7912;51.376;6.126;2023-03-20T04:52:35;12.23;;;8.03;;
15624;SDS011;7912;51.376;6.126;2023-03-20T04:55:06;11.80;;;7.80;;
15624;SDS011;7912;51.376;6.126;2023-03-20T04:57:34;11.07;;;7.80;;
15624;SDS011;7912;51.376;6.126;2023-03-20T05:00:05;10.80;;;8.37;;
15624;SDS011;7912;51.376;6.126;2023-03-20T05:02:34;11.33;;;8.00;;
15624;SDS011;7912;51.376;6.126;2023-03-20T05:05:07;11.20;;;7.97;;
15624;SDS011;7912;51.376;6.126;2023-03-20T05:07:37;12.73;;;8.50;;
15624;SDS011;7912;51.376;6.126;2023-03-20T05:10:05;10.93;;;8.03;;
15624;SDS011;7912;51.376;6.126;2023-03-20T05:12:33;10.60;;;7.97;;
15624;SDS011;7912;51.376;6.126;2023-03-20T05:15:01;10.63;;;7.60;;
15624;SDS011;7912;51.376;6.126;2023-03-20T05:17:31;10.90;;;8.13;;
15624;SDS011;7912;51.376;6.126;2023-03-20T05:19:59;10.23;;;7.33;;
15624;SDS011;7912;51.376;6.126;2023-03-20T05:22:27;10.50;;;7.20;;
15624;SDS011;7912;51.376;6.126;2023-03-20T05:24:55;12.07;;;7.73;;
15624;SDS011;7912;51.376;6.126;2023-03-20T05:27:22;10.97;;;7.40;;
15624;SDS011;7912;51.376;6.126;2023-03-20T05:29:50;9.43;;;7.17;;
15624;SDS011;7912;51.376;6.126;2023-03-20T05:32:19;11.37;;;7.20;;
15624;SDS011;7912;51.376;6.126;2023-03-20T05:34:47;10.97;;;7.40;;
15624;SDS011;7912;51.376;6.126;2023-03-20T05:37:14;11.17;;;7.40;;
15624;SDS011;7912;51.376;6.126;2023-03-20T05:39:42;10.90;;;7.63;;
15624;SDS011;7912;51.376;6.126;2023-03-20T05:42:09;11.27;;;7.87;;
15624;SDS011;7912;51.376;6.126;2023-03-20T05:44:37;11.80;;;7.90;;
15624;SDS011;7912;51.376;6.126;2023-03-20T05:47:04;12.53;;;7.80;;
15624;SDS011;7912;51.376;6.126;2023-03-20T05:49:38;9.97;;;7.67;;
15624;SDS011;7912;51.376;6.126;2023-03-20T05:52:07;10.87;;;7.50;;
15624;SDS011;7912;51.376;6.126;2023-03-20T05:54:35;10.57;;;7.33;;
15624;SDS011;7912;51.376;6.126;2023-03-20T05:57:03;9.03;;;7.13;;
15624;SDS011;7912;51.376;6.126;2023-03-20T05:59:30;10.13;;;8.00;;
15624;SDS011;7912;51.376;6.126;2023-03-20T06:01:58;10.87;;;7.90;;
15624;SDS011;7912;51.376;6.126;2023-03-20T06:04:29;9.83;;;7.50;;
15624;SDS011;7912;51.376;6.126;2023-03-20T06:06:57;10.67;;;7.17;;
15624;SDS011;7912;51.376;6.126;2023-03-20T06:09:25;10.60;;;7.23;;
15624;SDS011;7912;51.376;6.126;2023-03-20T06:11:55;10.73;;;8.10;;
15624;SDS011;7912;51.376;6.126;2023-03-20T06:14:22;11.77;;;8.03;;
15624;SDS011;7912;51.376;6.126;2023-03-20T06:16:51;12.90;;;8.10;;
15624;SDS011;7912;51.376;6.126;2023-03-20T06:19:19;13.47;;;8.17;;
15624;SDS011;7912;51.376;6.126;2023-03-20T06:21:50;12.13;;;8.30;;
15624;SDS011;7912;51.376;6.126;2023-03-20T06:24:21;11.77;;;9.13;;
15624;SDS011;7912;51.376;6.126;2023-03-20T06:26:53;10.30;;;7.90;;
15624;SDS011;7912;51.376;6.126;2023-03-20T06:29:20;11.97;;;8.33;;
15624;SDS011;7912;51.376;6.126;2023-03-20T06:31:48;13.03;;;9.13;;
15624;SDS011;7912;51.376;6.126;2023-03-20T06:34:16;12.13;;;8.83;;
15624;SDS011;7912;51.376;6.126;2023-03-20T06:39:50;9.83;;;7.83;;
15624;SDS011;7912;51.376;6.126;2023-03-20T06:42:17;16.43;;;9.43;;
15624;SDS011;7912;51.376;6.126;2023-03-20T06:44:45;12.40;;;8.70;;
15624;SDS011;7912;51.376;6.126;2023-03-20T06:47:25;11.30;;;9.07;;
15624;SDS011;7912;51.376;6.126;2023-03-20T06:49:53;12.67;;;9.40;;
15624;SDS011;7912;51.376;6.126;2023-03-20T06:52:23;15.93;;;10.13;;
15624;SDS011;7912;51.376;6.126;2023-03-20T06:54:51;13.27;;;9.40;;
15624;SDS011;7912;51.376;6.126;2023-03-20T06:57:21;15.17;;;9.40;;
15624;SDS011;7912;51.376;6.126;2023-03-20T06:59:49;12.23;;;8.93;;
15624;SDS011;7912;51.376;6.126;2023-03-20T07:02:19;12.63;;;9.93;;
15624;SDS011;7912;51.376;6.126;2023-03-20T07:04:47;12.40;;;9.07;;
15624;SDS011;7912;51.376;6.126;2023-03-20T07:07:15;11.17;;;8.63;;
15624;SDS011;7912;51.376;6.126;2023-03-20T07:09:43;13.30;;;9.37;;
15624;SDS011;7912;51.376;6.126;2023-03-20T07:12:30;10.40;;;8.17;;
15624;SDS011;7912;51.376;6.126;2023-03-20T07:14:58;10.57;;;8.47;;
15624;SDS011;7912;51.376;6.126;2023-03-20T07:21:17;11.90;;;7.80;;
15624;SDS011;7912;51.376;6.126;2023-03-20T07:23:50;10.83;;;7.37;;
15624;SDS011;7912;51.376;6.126;2023-03-20T07:26:21;10.73;;;7.47;;
15624;SDS011;7912;51.376;6.126;2023-03-20T07:28:49;11.10;;;7.40;;
15624;SDS011;7912;51.376;6.126;2023-03-20T07:31:22;11.93;;;8.00;;
15624;SDS011;7912;51.376;6.126;2023-03-20T07:33:52;9.13;;;7.20;;
15624;SDS011;7912;51.376;6.126;2023-03-20T07:36:22;10.50;;;7.50;;
15624;SDS011;7912;51.376;6.126;2023-03-20T07:38:51;9.03;;;7.10;;
15624;SDS011;7912;51.376;6.126;2023-03-20T07:41:18;8.90;;;6.70;;
15624;SDS011;7912;51.376;6.126;2023-03-20T07:43:47;10.57;;;7.20;;
15624;SDS011;7912;51.376;6.126;2023-03-20T07:46:14;10.40;;;6.87;;
15624;SDS011;7912;51.376;6.126;2023-03-20T07:48:43;9.60;;;6.50;;
15624;SDS011;7912;51.376;6.126;2023-03-20T07:51:12;8.80;;;6.80;;
15624;SDS011;7912;51.376;6.126;2023-03-20T07:53:39;11.00;;;6.43;;
15624;SDS011;7912;51.376;6.126;2023-03-20T07:56:07;11.00;;;6.40;;
15624;SDS011;7912;51.376;6.126;2023-03-20T07:58:36;9.13;;;6.60;;
15624;SDS011;7912;51.376;6.126;2023-03-20T08:01:03;8.67;;;6.17;;
15624;SDS011;7912;51.376;6.126;2023-03-20T08:03:31;11.57;;;6.67;;
15624;SDS011;7912;51.376;6.126;2023-03-20T08:05:59;8.73;;;5.93;;
15624;SDS011;7912;51.376;6.126;2023-03-20T08:08:27;8.03;;;5.87;;
15624;SDS011;7912;51.376;6.126;2023-03-20T08:10:54;8.87;;;6.33;;
15624;SDS011;7912;51.376;6.126;2023-03-20T08:13:22;10.13;;;6.43;;
15624;SDS011;7912;51.376;6.126;2023-03-20T08:15:50;7.83;;;5.87;;
15624;SDS011;7912;51.376;6.126;2023-03-20T08:18:17;9.60;;;6.03;;
15624;SDS011;7912;51.376;6.126;2023-03-20T08:23:35;11.70;;;6.47;;
15624;SDS011;7912;51.376;6.126;2023-03-20T08:26:03;8.00;;;5.63;;
15624;SDS011;7912;51.376;6.126;2023-03-20T08:28:30;10.13;;;6.00;;
15624;SDS011;7912;51.376;6.126;2023-03-20T08:31:12;9.43;;;6.30;;
15624;SDS011;7912;51.376;6.126;2023-03-20T08:33:40;11.20;;;6.07;;
15624;SDS011;7912;51.376;6.126;2023-03-20T08:36:08;9.00;;;5.73;;
15624;SDS011;7912;51.376;6.126;2023-03-20T08:38:36;8.30;;;6.03;;
15624;SDS011;7912;51.376;6.126;2023-03-20T08:41:05;10.60;;;6.40;;
15624;SDS011;7912;51.376;6.126;2023-03-20T08:43:33;10.03;;;6.27;;
15624;SDS011;7912;51.376;6.126;2023-03-20T08:46:02;7.60;;;5.87;;
15624;SDS011;7912;51.376;6.126;2023-03-20T08:48:31;8.83;;;5.90;;
15624;SDS011;7912;51.376;6.126;2023-03-20T08:50:58;9.57;;;6.27;;
15624;SDS011;7912;51.376;6.126;2023-03-20T08:53:26;9.17;;;6.33;;
15624;SDS011;7912;51.376;6.126;2023-03-20T08:55:54;9.00;;;5.80;;
15624;SDS011;7912;51.376;6.126;2023-03-20T08:58:22;10.23;;;6.30;;
15624;SDS011;7912;51.376;6.126;2023-03-20T09:00:49;8.00;;;5.27;;
15624;SDS011;7912;51.376;6.126;2023-03-20T09:03:18;8.10;;;5.57;;
15624;SDS011;7912;51.376;6.126;2023-03-20T09:05:47;8.47;;;6.27;;
15624;SDS011;7912;51.376;6.126;2023-03-20T09:08:18;10.83;;;6.30;;
15624;SDS011;7912;51.376;6.126;2023-03-20T09:14:56;10.63;;;5.83;;
15624;SDS011;7912;51.376;6.126;2023-03-20T09:17:25;12.53;;;6.13;;
15624;SDS011;7912;51.376;6.126;2023-03-20T09:26:22;7.67;;;5.37;;
15624;SDS011;7912;51.376;6.126;2023-03-20T09:28:50;8.30;;;5.53;;
15624;SDS011;7912;51.376;6.126;2023-03-20T09:31:18;8.43;;;5.53;;
15624;SDS011;7912;51.376;6.126;2023-03-20T09:33:46;6.97;;;5.23;;
15624;SDS011;7912;51.376;6.126;2023-03-20T09:36:24;10.57;;;5.10;;
15624;SDS011;7912;51.376;6.126;2023-03-20T09:38:51;7.20;;;4.97;;
15624;SDS011;7912;51.376;6.126;2023-03-20T09:41:20;7.53;;;5.10;;
15624;SDS011;7912;51.376;6.126;2023-03-20T09:54:53;7.40;;;4.43;;
15624;SDS011;7912;51.376;6.126;2023-03-20T09:57:38;7.10;;;4.20;;
15624;SDS011;7912;51.376;6.126;2023-03-20T10:00:23;7.37;;;4.47;;
15624;SDS011;7912;51.376;6.126;2023-03-20T10:03:04;8.00;;;4.47;;
15624;SDS011;7912;51.376;6.126;2023-03-20T10:05:55;7.00;;;4.50;;
15624;SDS011;7912;51.376;6.126;2023-03-20T10:08:34;5.53;;;4.13;;
15624;SDS011;7912;51.376;6.126;2023-03-20T10:11:12;6.80;;;4.17;;
15624;SDS011;7912;51.376;6.126;2023-03-20T10:14:18;6.17;;;3.33;;
15624;SDS011;7912;51.376;6.126;2023-03-20T10:23:05;6.07;;;3.97;;
15624;SDS011;7912;51.376;6.126;2023-03-20T10:26:01;5.60;;;3.63;;
15624;SDS011;7912;51.376;6.126;2023-03-20T10:28:43;6.20;;;3.47;;
15624;SDS011;7912;51.376;6.126;2023-03-20T10:31:47;6.10;;;3.13;;
15624;SDS011;7912;51.376;6.126;2023-03-20T10:40:40;6.50;;;3.00;;
15624;SDS011;7912;51.376;6.126;2023-03-20T10:43:22;7.73;;;3.40;;
15624;SDS011;7912;51.376;6.126;2023-03-20T10:46:06;5.60;;;3.13;;
15624;SDS011;7912;51.376;6.126;2023-03-20T10:48:49;6.10;;;3.07;;
15624;SDS011;7912;51.376;6.126;2023-03-20T10:51:36;5.80;;;3.03;;
15624;SDS011;7912;51.376;6.126;2023-03-20T10:54:21;5.40;;;2.80;;
15624;SDS011;7912;51.376;6.126;2023-03-20T10:57:24;4.57;;;2.50;;
15624;SDS011;7912;51.376;6.126;2023-03-20T10:59:57;4.83;;;2.80;;
15624;SDS011;7912;51.376;6.126;2023-03-20T11:02:28;4.47;;;2.80;;
15624;SDS011;7912;51.376;6.126;2023-03-20T11:04:58;5.67;;;2.60;;
15624;SDS011;7912;51.376;6.126;2023-03-20T11:07:32;5.87;;;3.00;;
15624;SDS011;7912;51.376;6.126;2023-03-20T11:19:05;5.83;;;3.00;;
15624;SDS011;7912;51.376;6.126;2023-03-20T11:21:44;6.43;;;3.13;;
15624;SDS011;7912;51.376;6.126;2023-03-20T11:24:25;5.57;;;3.63;;
15624;SDS011;7912;51.376;6.126;2023-03-20T11:27:15;7.13;;;3.20;;
15624;SDS011;7912;51.376;6.126;2023-03-20T11:29:50;6.53;;;3.40;;
15624;SDS011;7912;51.376;6.126;2023-03-20T11:37:54;4.83;;;3.57;;
15624;SDS011;7912;51.376;6.126;2023-03-20T11:40:38;6.20;;;3.47;;
15624;SDS011;7912;51.376;6.126;2023-03-20T11:43:10;4.87;;;3.30;;
15624;SDS011;7912;51.376;6.126;2023-03-20T11:45:57;6.17;;;3.43;;
15624;SDS011;7912;51.376;6.126;2023-03-20T11:49:31;5.47;;;3.03;;
15624;SDS011;7912;51.376;6.126;2023-03-20T11:52:12;5.73;;;3.17;;
15624;SDS011;7912;51.376;6.126;2023-03-20T11:54:47;5.07;;;3.30;;
15624;SDS011;7912;51.376;6.126;2023-03-20T12:00:19;5.97;;;3.70;;
15624;SDS011;7912;51.376;6.126;2023-03-20T12:02:50;6.83;;;3.10;;
15624;SDS011;7912;51.376;6.126;2023-03-20T12:08:03;7.47;;;3.90;;
15624;SDS011;7912;51.376;6.126;2023-03-20T12:10:41;6.77;;;3.67;;
15624;SDS011;7912;51.376;6.126;2023-03-20T12:13:32;6.77;;;3.63;;
15624;SDS011;7912;51.376;6.126;2023-03-20T12:16:12;5.20;;;2.93;;
15624;SDS011;7912;51.376;6.126;2023-03-20T12:18:48;4.43;;;3.20;;
15624;SDS011;7912;51.376;6.126;2023-03-20T12:21:58;5.80;;;3.10;;
15624;SDS011;7912;51.376;6.126;2023-03-20T12:28:00;7.57;;;3.30;;
15624;SDS011;7912;51.376;6.126;2023-03-20T12:33:53;5.50;;;3.10;;
15624;SDS011;7912;51.376;6.126;2023-03-20T12:36:43;6.80;;;3.17;;
15624;SDS011;7912;51.376;6.126;2023-03-20T12:39:23;5.47;;;3.40;;
15624;SDS011;7912;51.376;6.126;2023-03-20T12:45:26;6.10;;;3.43;;
15624;SDS011;7912;51.376;6.126;2023-03-20T12:48:42;7.07;;;3.43;;
15624;SDS011;7912;51.376;6.126;2023-03-20T12:55:24;8.00;;;3.80;;
15624;SDS011;7912;51.376;6.126;2023-03-20T12:58:21;5.97;;;3.37;;
15624;SDS011;7912;51.376;6.126;2023-03-20T13:01:03;6.90;;;3.50;;
15624;SDS011;7912;51.376;6.126;2023-03-20T13:12:21;7.83;;;4.00;;
15624;SDS011;7912;51.376;6.126;2023-03-20T13:15:18;5.30;;;3.70;;
15624;SDS011;7912;51.376;6.126;2023-03-20T13:24:47;6.67;;;3.67;;
15624;SDS011;7912;51.376;6.126;2023-03-20T13:27:39;5.37;;;3.53;;
15624;SDS011;7912;51.376;6.126;2023-03-20T13:38:55;6.37;;;3.90;;
15624;SDS011;7912;51.376;6.126;2023-03-20T13:41:32;7.70;;;4.07;;
15624;SDS011;7912;51.376;6.126;2023-03-20T13:44:02;9.93;;;3.80;;
15624;SDS011;7912;51.376;6.126;2023-03-20T13:46:40;7.90;;;4.00;;
15624;SDS011;7912;51.376;6.126;2023-03-20T13:49:14;6.37;;;3.80;;
15624;SDS011;7912;51.376;6.126;2023-03-20T13:54:57;5.10;;;3.77;;
15624;SDS011;7912;51.376;6.126;2023-03-20T13:57:56;7.23;;;4.30;;
15624;SDS011;7912;51.376;6.126;2023-03-20T14:03:11;6.43;;;3.77;;
15624;SDS011;7912;51.376;6.126;2023-03-20T14:05:50;6.70;;;3.73;;
15624;SDS011;7912;51.376;6.126;2023-03-20T14:08:29;6.63;;;3.80;;
15624;SDS011;7912;51.376;6.126;2023-03-20T14:13:48;7.63;;;3.90;;
15624;SDS011;7912;51.376;6.126;2023-03-20T14:16:26;6.80;;;4.17;;
15624;SDS011;7912;51.376;6.126;2023-03-20T14:19:14;7.70;;;4.03;;
15624;SDS011;7912;51.376;6.126;2023-03-20T14:21:50;7.33;;;3.67;;
15624;SDS011;7912;51.376;6.126;2023-03-20T14:24:25;7.80;;;4.47;;
15624;SDS011;7912;51.376;6.126;2023-03-20T14:27:04;5.67;;;4.00;;
15624;SDS011;7912;51.376;6.126;2023-03-20T14:29:33;6.40;;;4.13;;
15624;SDS011;7912;51.376;6.126;2023-03-20T14:35:21;7.37;;;3.70;;
15624;SDS011;7912;51.376;6.126;2023-03-20T14:41:38;7.13;;;3.70;;
15624;SDS011;7912;51.376;6.126;2023-03-20T14:52:33;5.50;;;3.67;;
15624;SDS011;7912;51.376;6.126;2023-03-20T14:57:50;5.90;;;3.80;;
15624;SDS011;7912;51.376;6.126;2023-03-20T15:00:27;6.60;;;3.40;;
15624;SDS011;7912;51.376;6.126;2023-03-20T15:03:03;7.57;;;3.70;;
15624;SDS011;7912;51.376;6.126;2023-03-20T15:05:40;6.67;;;3.47;;
15624;SDS011;7912;51.376;6.126;2023-03-20T15:11:52;6.23;;;3.40;;
15624;SDS011;7912;51.376;6.126;2023-03-20T15:14:34;7.97;;;3.47;;
15624;SDS011;7912;51.376;6.126;2023-03-20T15:17:23;5.60;;;3.47;;
15624;SDS011;7912;51.376;6.126;2023-03-20T15:20:18;6.23;;;3.83;;
15624;SDS011;7912;51.376;6.126;2023-03-20T15:22:50;6.33;;;3.57;;
15624;SDS011;7912;51.376;6.126;2023-03-20T15:28:16;7.13;;;3.60;;
15624;SDS011;7912;51.376;6.126;2023-03-20T15:34:01;5.90;;;3.47;;
15624;SDS011;7912;51.376;6.126;2023-03-20T15:36:34;6.83;;;3.60;;
15624;SDS011;7912;51.376;6.126;2023-03-20T15:39:10;6.27;;;3.70;;
15624;SDS011;7912;51.376;6.126;2023-03-20T15:41:44;5.83;;;3.80;;
15624;SDS011;7912;51.376;6.126;2023-03-20T15:44:36;7.87;;;4.10;;
15624;SDS011;7912;51.376;6.126;2023-03-20T15:47:11;7.30;;;3.60;;
15624;SDS011;7912;51.376;6.126;2023-03-20T15:49:57;5.13;;;3.50;;
15624;SDS011;7912;51.376;6.126;2023-03-20T15:52:28;4.83;;;3.37;;
15624;SDS011;7912;51.376;6.126;2023-03-20T15:55:03;8.83;;;3.77;;
15624;SDS011;7912;51.376;6.126;2023-03-20T15:57:38;7.13;;;3.53;;
15624;SDS011;7912;51.376;6.126;2023-03-20T16:00:16;9.00;;;3.60;;
15624;SDS011;7912;51.376;6.126;2023-03-20T16:03:06;8.27;;;3.43;;
15624;SDS011;7912;51.376;6.126;2023-03-20T16:05:41;6.57;;;3.87;;
15624;SDS011;7912;51.376;6.126;2023-03-20T16:08:44;6.10;;;3.10;;
15624;SDS011;7912;51.376;6.126;2023-03-20T16:11:15;6.53;;;3.57;;
15624;SDS011;7912;51.376;6.126;2023-03-20T16:13:45;7.00;;;3.37;;
15624;SDS011;7912;51.376;6.126;2023-03-20T16:19:18;7.23;;;3.33;;
15624;SDS011;7912;51.376;6.126;2023-03-20T16:21:50;4.40;;;3.43;;
15624;SDS011;7912;51.376;6.126;2023-03-20T16:24:26;6.57;;;3.30;;
15624;SDS011;7912;51.376;6.126;2023-03-20T16:26:57;6.80;;;3.40;;
15624;SDS011;7912;51.376;6.126;2023-03-20T16:29:24;6.03;;;2.93;;
15624;SDS011;7912;51.376;6.126;2023-03-20T16:32:06;5.77;;;3.37;;
15624;SDS011;7912;51.376;6.126;2023-03-20T16:34:50;5.70;;;3.27;;
15624;SDS011;7912;51.376;6.126;2023-03-20T16:37:22;5.73;;;3.20;;
15624;SDS011;7912;51.376;6.126;2023-03-20T16:42:56;6.30;;;3.20;;
15624;SDS011;7912;51.376;6.126;2023-03-20T16:45:38;6.00;;;3.57;;
15624;SDS011;7912;51.376;6.126;2023-03-20T16:50:44;6.50;;;3.60;;
15624;SDS011;7912;51.376;6.126;2023-03-20T16:53:18;6.20;;;3.37;;
15624;SDS011;7912;51.376;6.126;2023-03-20T16:55:47;8.90;;;4.20;;
15624;SDS011;7912;51.376;6.126;2023-03-20T16:58:19;6.70;;;4.27;;
15624;SDS011;7912;51.376;6.126;2023-03-20T17:00:58;6.37;;;4.07;;
15624;SDS011;7912;51.376;6.126;2023-03-20T17:03:36;8.30;;;3.93;;
15624;SDS011;7912;51.376;6.126;2023-03-20T17:15:28;6.30;;;4.03;;
15624;SDS011;7912;51.376;6.126;2023-03-20T17:17:55;5.57;;;3.70;;
15624;SDS011;7912;51.376;6.126;2023-03-20T17:20:24;5.60;;;3.23;;
15624;SDS011;7912;51.376;6.126;2023-03-20T17:22:56;7.67;;;3.93;;
15624;SDS011;7912;51.376;6.126;2023-03-20T17:25:24;10.23;;;4.07;;
15624;SDS011;7912;51.376;6.126;2023-03-20T17:27:52;5.73;;;3.50;;
15624;SDS011;7912;51.376;6.126;2023-03-20T17:33:13;35.93;;;32.87;;
15624;SDS011;7912;51.376;6.126;2023-03-20T17:35:42;96.70;;;86.83;;
15624;SDS011;7912;51.376;6.126;2023-03-20T17:38:14;72.23;;;61.00;;
15624;SDS011;7912;51.376;6.126;2023-03-20T17:40:47;92.50;;;83.20;;
15624;SDS011;7912;51.376;6.126;2023-03-20T17:43:17;94.97;;;84.73;;
15624;SDS011;7912;51.376;6.126;2023-03-20T17:45:46;104.13;;;92.77;;
15624;SDS011;7912;51.376;6.126;2023-03-20T17:48:17;59.20;;;46.90;;
15624;SDS011;7912;51.376;6.126;2023-03-20T17:50:47;66.93;;;52.53;;
15624;SDS011;7912;51.376;6.126;2023-03-20T17:53:19;65.57;;;58.70;;
15624;SDS011;7912;51.376;6.126;2023-03-20T17:55:52;94.47;;;85.17;;
15624;SDS011;7912;51.376;6.126;2023-03-20T17:58:21;46.30;;;41.63;;
15624;SDS011;7912;51.376;6.126;2023-03-20T18:00:49;18.83;;;16.83;;
15624;SDS011;7912;51.376;6.126;2023-03-20T18:03:19;13.73;;;11.30;;
15624;SDS011;7912;51.376;6.126;2023-03-20T18:05:49;14.47;;;12.23;;
15624;SDS011;7912;51.376;6.126;2023-03-20T18:08:33;17.73;;;16.00;;
15624;SDS011;7912;51.376;6.126;2023-03-20T18:11:02;107.70;;;94.27;;
15624;SDS011;7912;51.376;6.126;2023-03-20T18:13:29;41.53;;;37.03;;
15624;SDS011;7912;51.376;6.126;2023-03-20T18:15:57;191.27;;;172.70;;
15624;SDS011;7912;51.376;6.126;2023-03-20T18:18:25;342.67;;;309.70;;
15624;SDS011;7912;51.376;6.126;2023-03-20T18:20:52;69.70;;;62.50;;
15624;SDS011;7912;51.376;6.126;2023-03-20T18:23:22;22.47;;;20.03;;
15624;SDS011;7912;51.376;6.126;2023-03-20T18:25:50;14.37;;;11.37;;
15624;SDS011;7912;51.376;6.126;2023-03-20T18:28:17;13.70;;;8.93;;
15624;SDS011;7912;51.376;6.126;2023-03-20T18:30:48;10.27;;;5.57;;
15624;SDS011;7912;51.376;6.126;2023-03-20T18:40:33;75.80;;;65.50;;
15624;SDS011;7912;51.376;6.126;2023-03-20T18:43:02;113.03;;;98.87;;
15624;SDS011;7912;51.376;6.126;2023-03-20T18:45:30;76.20;;;64.47;;
15624;SDS011;7912;51.376;6.126;2023-03-20T18:47:58;79.10;;;62.13;;
15624;SDS011;7912;51.376;6.126;2023-03-20T18:50:30;63.63;;;51.47;;
15624;SDS011;7912;51.376;6.126;2023-03-20T18:53:04;139.33;;;123.60;;
15624;SDS011;7912;51.376;6.126;2023-03-20T18:55:33;242.97;;;217.33;;
15624;SDS011;7912;51.376;6.126;2023-03-20T18:58:05;86.33;;;75.80;;
15624;SDS011;7912;51.376;6.126;2023-03-20T19:00:38;117.60;;;105.33;;
15624;SDS011;7912;51.376;6.126;2023-03-20T19:03:09;61.57;;;54.97;;
15624;SDS011;7912;51.376;6.126;2023-03-20T19:05:39;50.17;;;43.00;;
15624;SDS011;7912;51.376;6.126;2023-03-20T19:08:10;31.63;;;28.23;;
15624;SDS011;7912;51.376;6.126;2023-03-20T19:10:44;19.47;;;15.03;;
15624;SDS011;7912;51.376;6.126;2023-03-20T19:13:13;14.23;;;12.03;;
15624;SDS011;7912;51.376;6.126;2023-03-20T19:15:44;26.80;;;22.27;;